Time;durP1;ratioP1;P1;durP2;ratioP2;P2;SDS_P1;SDS_P2;PMS_P1;PMS_P2;Temp;Humidity;BMP_temperature;BMP_pressure;BME280_temperature;BME280_humidity;BME280_pressure;Samples;Min_cycle;Max_cycle;Signal;HPM_P1;HPM_P2
2022/10/24 00:01:21;;;;;;;3.50;1.00;;;19.70;99.90;;;;;;5095311;28;20233;-75
2022/10/24 00:03:49;;;;;;;1.70;0.73;;;19.50;99.90;;;;;;5077927;28;20212;-74
2022/10/24 00:06:18;;;;;;;1.73;0.57;;;19.50;99.90;;;;;;5077417;28;20515;-76
2022/10/24 00:08:47;;;;;;;2.27;0.80;;;19.40;99.90;;;;;;5077095;28;20189;-75
2022/10/24 00:11:18;;;;;;;3.57;0.90;;;19.50;99.90;;;;;;5095461;28;20263;-76
2022/10/24 00:13:46;;;;;;;1.67;0.70;;;19.60;99.90;;;;;;5095201;28;20186;-75
2022/10/24 00:16:14;;;;;;;1.37;0.50;;;19.60;99.90;;;;;;5095288;28;20659;-75
2022/10/24 00:18:41;;;;;;;3.60;1.10;;;19.70;99.90;;;;;;5077117;28;20186;-76
2022/10/24 00:21:09;;;;;;;1.00;0.60;;;19.60;99.90;;;;;;5095118;28;20759;-75
2022/10/24 00:23:38;;;;;;;1.07;0.70;;;19.60;99.90;;;;;;5095124;28;20179;-76
2022/10/24 00:26:06;;;;;;;1.00;0.50;;;19.60;99.90;;;;;;5094984;28;20187;-75
2022/10/24 00:28:36;;;;;;;2.13;0.60;;;19.60;99.90;;;;;;5095071;28;20177;-76
2022/10/24 00:31:05;;;;;;;1.13;0.43;;;19.60;99.90;;;;;;5076865;28;20222;-76
2022/10/24 00:33:33;;;;;;;1.47;0.40;;;19.50;99.90;;;;;;5076835;28;20559;-75
2022/10/24 00:36:01;;;;;;;1.80;0.63;;;19.50;99.90;;;;;;5094793;28;20552;-76
2022/10/24 00:38:29;;;;;;;0.67;0.50;;;19.60;99.90;;;;;;5094817;28;20644;-74
2022/10/24 00:40:57;;;;;;;2.53;0.60;;;19.60;99.90;;;;;;5094359;28;20211;-75
2022/10/24 00:43:26;;;;;;;3.40;0.50;;;19.60;99.90;;;;;;5094767;28;20175;-75
2022/10/24 00:45:55;;;;;;;1.10;0.50;;;19.50;99.90;;;;;;5076470;28;20200;-73
2022/10/24 00:48:32;;;;;;;0.70;0.40;;;19.70;99.90;;;;;;5094632;28;20182;-76
2022/10/24 00:51:20;;;;;;;1.20;0.53;;;19.70;99.90;;;;;;5094573;28;20530;-76
2022/10/24 00:53:58;;;;;;;5.23;0.60;;;19.70;99.90;;;;;;5095171;28;20202;-73
2022/10/24 00:56:30;;;;;;;2.53;0.80;;;19.70;99.90;;;;;;5094618;28;20537;-75
2022/10/24 00:59:01;;;;;;;2.17;0.60;;;19.70;99.90;;;;;;5094414;28;20176;-75
2022/10/24 01:01:29;;;;;;;0.57;0.50;;;19.50;99.90;;;;;;5075960;28;20234;-71
2022/10/24 01:03:56;;;;;;;0.50;0.47;;;19.50;99.90;;;;;;5094121;28;20175;-72
2022/10/24 01:07:13;;;;;;;1.50;0.50;;;19.50;99.90;;;;;;5094532;28;20209;-73
2022/10/24 01:10:02;;;;;;;0.77;0.50;;;19.50;99.90;;;;;;4992958;28;20229;-72
2022/10/24 01:12:53;;;;;;;0.53;0.50;;;19.50;99.90;;;;;;5089550;28;20223;-72
2022/10/24 01:15:38;;;;;;;0.43;0.40;;;19.50;99.90;;;;;;5094514;28;20525;-72
2022/10/24 01:18:17;;;;;;;1.57;0.70;;;19.50;99.90;;;;;;5094473;28;20174;-72
2022/10/24 01:21:15;;;;;;;1.77;0.60;;;19.40;99.90;;;;;;5094624;28;20199;-72
2022/10/24 01:24:03;;;;;;;1.07;0.73;;;19.40;99.90;;;;;;5093991;28;20545;-73
2022/10/24 01:27:25;;;;;;;1.20;0.43;;;19.40;99.90;;;;;;5094218;28;20168;-71
2022/10/24 01:30:16;;;;;;;0.80;0.50;;;19.40;99.90;;;;;;5094073;28;20186;-72
2022/10/24 01:33:01;;;;;;;1.00;0.50;;;19.40;99.90;;;;;;5086430;28;20188;-74
2022/10/24 01:35:55;;;;;;;1.50;0.43;;;19.50;99.90;;;;;;5091644;28;20518;-77
2022/10/24 01:38:34;;;;;;;1.63;0.40;;;19.50;99.90;;;;;;5074391;28;20606;-78
2022/10/24 01:41:24;;;;;;;1.63;0.70;;;19.50;99.90;;;;;;5080638;28;20214;-77
2022/10/24 01:43:53;;;;;;;0.50;0.40;;;19.50;99.90;;;;;;5075439;28;20194;-74
2022/10/24 01:46:28;;;;;;;0.67;0.50;;;19.40;99.90;;;;;;5086568;28;20191;-76
2022/10/24 01:49:18;;;;;;;1.87;0.60;;;19.40;99.90;;;;;;5091630;28;20213;-75
2022/10/24 01:51:49;;;;;;;1.27;0.60;;;19.50;99.90;;;;;;5084740;28;20183;-75
2022/10/24 01:54:18;;;;;;;1.50;0.53;;;19.40;99.90;;;;;;5078235;28;20194;-77
2022/10/24 01:56:45;;;;;;;3.10;0.50;;;19.30;99.90;;;;;;5071674;28;20191;-77
2022/10/24 01:59:28;;;;;;;2.40;0.50;;;19.30;99.90;;;;;;5055454;28;20213;-75
2022/10/24 02:02:05;;;;;;;0.40;0.40;;;19.40;99.90;;;;;;5087686;28;20676;-74
2022/10/24 02:04:38;;;;;;;1.03;0.40;;;19.40;99.90;;;;;;5087663;28;20175;-74
2022/10/24 02:07:09;;;;;;;1.30;0.53;;;19.40;99.90;;;;;;5091738;28;20190;-75
2022/10/24 02:09:40;;;;;;;2.17;0.40;;;19.30;99.90;;;;;;5091500;28;20179;-76
2022/10/24 02:12:13;;;;;;;1.00;0.50;;;19.40;99.90;;;;;;5087978;28;20211;-76
2022/10/24 02:14:49;;;;;;;1.00;0.60;;;19.40;99.90;;;;;;5086987;28;20671;-74
2022/10/24 02:17:18;;;;;;;1.40;0.60;;;19.40;99.90;;;;;;5077219;28;20189;-76
2022/10/24 02:19:47;;;;;;;2.63;0.43;;;19.40;99.90;;;;;;5072570;28;20198;-75
2022/10/24 02:22:38;;;;;;;1.07;0.50;;;19.40;99.90;;;;;;5072492;28;20250;-74
2022/10/24 02:25:10;;;;;;;0.97;0.60;;;19.30;99.90;;;;;;5076817;28;20187;-74
2022/10/24 02:28:05;;;;;;;0.50;0.37;;;19.40;99.90;;;;;;5086343;28;20660;-74
2022/10/24 02:30:36;;;;;;;0.53;0.40;;;19.40;99.90;;;;;;5060490;28;20184;-73
2022/10/24 02:33:04;;;;;;;0.30;0.30;;;19.40;99.90;;;;;;5088053;28;20527;-77
2022/10/24 02:35:36;;;;;;;0.50;0.37;;;19.40;99.90;;;;;;5088716;28;21760;-75
2022/10/24 02:38:27;;;;;;;0.33;0.33;;;19.40;99.90;;;;;;5077668;28;20179;-75
2022/10/24 02:40:59;;;;;;;0.50;0.50;;;19.40;99.90;;;;;;5084117;28;20756;-76
2022/10/24 02:43:28;;;;;;;0.30;0.30;;;19.50;99.90;;;;;;5081626;28;20180;-76
2022/10/24 02:45:57;;;;;;;0.50;0.30;;;19.70;99.90;;;;;;5073627;28;20213;-74
2022/10/24 02:48:33;;;;;;;0.30;0.30;;;19.70;99.90;;;;;;5086194;28;20226;-75
2022/10/24 02:51:02;;;;;;;0.30;0.30;;;19.70;99.90;;;;;;5087437;28;20708;-76
2022/10/24 02:53:30;;;;;;;0.33;0.30;;;19.60;99.90;;;;;;5090102;28;20186;-76
2022/10/24 02:55:58;;;;;;;1.90;0.50;;;19.70;99.90;;;;;;5083465;28;20206;-75
2022/10/24 02:58:26;;;;;;;0.77;0.40;;;19.80;99.90;;;;;;5069640;28;20204;-75
2022/10/24 03:00:54;;;;;;;0.53;0.40;;;19.80;99.90;;;;;;5051129;28;20328;-76
2022/10/24 03:03:21;;;;;;;0.47;0.40;;;19.90;99.90;;;;;;5058214;28;20275;-77
2022/10/24 03:05:49;;;;;;;0.80;0.50;;;20.00;99.90;;;;;;5055778;28;20196;-74
2022/10/24 03:08:17;;;;;;;0.40;0.30;;;20.10;99.90;;;;;;5057414;28;20192;-73
2022/10/24 03:10:45;;;;;;;0.77;0.40;;;20.20;99.90;;;;;;5072971;28;20554;-74
2022/10/24 03:13:13;;;;;;;0.30;0.30;;;20.30;99.90;;;;;;5068465;28;20184;-73
2022/10/24 03:15:40;;;;;;;0.47;0.33;;;20.40;99.90;;;;;;5072145;28;20194;-73
2022/10/24 03:18:08;;;;;;;0.40;0.23;;;20.50;99.90;;;;;;5072936;28;20219;-74
2022/10/24 03:20:36;;;;;;;0.47;0.43;;;20.50;99.90;;;;;;5074508;28;20220;-74
2022/10/24 03:23:04;;;;;;;0.13;0.13;;;20.70;99.90;;;;;;5067656;28;20220;-75
2022/10/24 03:25:32;;;;;;;0.23;0.23;;;21.00;99.90;;;;;;5054410;28;20230;-75
2022/10/24 03:27:59;;;;;;;0.30;0.30;;;21.00;99.90;;;;;;5054335;28;20188;-74
2022/10/24 03:30:27;;;;;;;0.23;0.23;;;21.20;99.90;;;;;;5054295;28;20181;-74
2022/10/24 03:32:55;;;;;;;0.40;0.33;;;21.50;99.90;;;;;;5067925;28;20184;-74
2022/10/24 03:35:23;;;;;;;0.40;0.30;;;21.80;99.90;;;;;;5055338;28;20198;-77
2022/10/24 03:37:50;;;;;;;0.40;0.40;;;21.70;99.90;;;;;;5054404;28;20203;-77
2022/10/24 03:40:18;;;;;;;0.33;0.33;;;21.50;99.90;;;;;;5068114;28;20688;-77
2022/10/24 03:42:46;;;;;;;1.03;0.60;;;21.50;99.90;;;;;;5062565;28;20666;-76
2022/10/24 03:45:14;;;;;;;0.33;0.33;;;21.60;99.90;;;;;;5055545;28;20195;-78
2022/10/24 03:47:42;;;;;;;0.60;0.30;;;21.70;99.90;;;;;;5056205;28;20283;-77
2022/10/24 03:50:10;;;;;;;0.40;0.40;;;21.70;99.90;;;;;;5073938;28;20179;-77
2022/10/24 03:52:38;;;;;;;1.07;0.50;;;21.70;99.90;;;;;;5061751;28;20186;-77
2022/10/24 03:55:06;;;;;;;0.50;0.30;;;21.60;99.90;;;;;;5069412;28;20177;-77
2022/10/24 03:57:34;;;;;;;0.30;0.30;;;21.50;99.90;;;;;;5073271;28;20205;-76
2022/10/24 04:00:01;;;;;;;0.93;0.50;;;21.40;99.90;;;;;;5073319;28;20184;-76
2022/10/24 04:02:29;;;;;;;0.40;0.40;;;21.40;99.90;;;;;;5092599;28;20227;-78
2022/10/24 04:04:57;;;;;;;0.60;0.50;;;21.30;99.90;;;;;;5093466;28;20175;-78
2022/10/24 04:07:25;;;;;;;0.50;0.50;;;21.10;99.90;;;;;;5090284;28;20721;-77
2022/10/24 04:09:52;;;;;;;0.40;0.40;;;21.00;99.90;;;;;;5073549;28;20238;-78
2022/10/24 04:12:20;;;;;;;1.70;0.57;;;21.00;99.90;;;;;;5055471;28;20255;-77
2022/10/24 04:14:48;;;;;;;2.70;0.80;;;21.00;99.90;;;;;;5087041;28;20182;-77
2022/10/24 04:17:16;;;;;;;1.00;0.60;;;21.20;99.90;;;;;;5093885;28;20191;-77
2022/10/24 04:19:44;;;;;;;0.50;0.50;;;21.10;99.90;;;;;;5085059;28;20652;-77
2022/10/24 04:22:11;;;;;;;0.67;0.57;;;21.20;99.90;;;;;;5093648;28;20763;-76
2022/10/24 04:24:39;;;;;;;0.87;0.57;;;21.30;99.90;;;;;;5077467;28;20666;-74
2022/10/24 04:27:08;;;;;;;0.50;0.50;;;21.40;99.90;;;;;;5055213;28;20249;-75
2022/10/24 04:29:36;;;;;;;0.50;0.40;;;21.40;99.90;;;;;;5073373;28;20180;-75
2022/10/24 04:32:04;;;;;;;0.43;0.43;;;21.50;99.90;;;;;;5074237;28;20279;-76
2022/10/24 04:34:37;;;;;;;1.27;0.50;;;21.40;99.90;;;;;;5073096;28;20196;-76
2022/10/24 04:37:05;;;;;;;2.20;0.77;;;21.40;99.90;;;;;;5076645;28;20187;-77
2022/10/24 04:39:33;;;;;;;0.97;0.40;;;21.30;99.90;;;;;;5085621;28;20183;-76
2022/10/24 04:42:01;;;;;;;4.03;0.60;;;21.20;99.90;;;;;;5083635;28;20696;-76
2022/10/24 04:44:28;;;;;;;0.37;0.37;;;21.00;99.90;;;;;;5080212;28;20180;-77
2022/10/24 04:46:56;;;;;;;2.67;0.33;;;20.90;99.90;;;;;;5073028;28;20271;-75
2022/10/24 04:49:24;;;;;;;1.87;0.50;;;20.80;99.90;;;;;;5074460;28;20600;-75
2022/10/24 04:51:52;;;;;;;0.40;0.40;;;20.70;99.90;;;;;;5072853;28;20238;-75
2022/10/24 04:54:19;;;;;;;0.30;0.30;;;20.70;99.90;;;;;;5072806;28;20215;-78
2022/10/24 04:56:47;;;;;;;0.63;0.50;;;20.70;99.90;;;;;;5054842;28;20209;-75
2022/10/24 04:59:15;;;;;;;2.47;0.60;;;20.70;99.90;;;;;;5072747;28;20184;-74
2022/10/24 05:01:43;;;;;;;1.10;0.80;;;20.70;99.90;;;;;;5078835;28;20227;-73
2022/10/24 05:04:11;;;;;;;2.17;0.60;;;20.70;99.90;;;;;;5092394;28;20211;-73
2022/10/24 05:06:39;;;;;;;3.63;0.73;;;20.60;99.90;;;;;;5072231;28;20187;-73
2022/10/24 05:09:07;;;;;;;2.33;0.60;;;20.50;99.90;;;;;;5072587;28;20249;-73
2022/10/24 05:11:34;;;;;;;1.07;0.70;;;20.50;99.90;;;;;;5061935;28;20504;-73
2022/10/24 05:14:02;;;;;;;1.37;0.80;;;20.50;99.90;;;;;;5074418;28;20212;-74
2022/10/24 05:16:30;;;;;;;2.57;0.70;;;20.50;99.90;;;;;;5087395;28;20172;-74
2022/10/24 05:18:58;;;;;;;1.43;0.50;;;20.40;99.90;;;;;;5087317;28;20183;-73
2022/10/24 05:21:26;;;;;;;3.43;0.80;;;20.40;99.90;;;;;;5087099;28;20216;-72
2022/10/24 05:23:53;;;;;;;0.87;0.50;;;20.50;99.90;;;;;;5072194;28;20564;-72
2022/10/24 05:26:21;;;;;;;5.50;0.80;;;20.60;99.90;;;;;;5083593;28;20183;-72
2022/10/24 05:28:49;;;;;;;10.33;1.20;;;20.80;99.90;;;;;;5092150;28;20251;-72
2022/10/24 05:31:16;;;;;;;3.50;1.23;;;21.00;99.90;;;;;;5092446;28;20232;-73
2022/10/24 05:33:44;;;;;;;3.00;0.80;;;21.20;99.90;;;;;;5092148;28;20203;-75
2022/10/24 05:36:12;;;;;;;1.33;0.90;;;21.00;99.90;;;;;;5092066;28;20583;-74
2022/10/24 05:38:40;;;;;;;1.10;0.80;;;21.20;99.90;;;;;;5060059;28;20549;-74
2022/10/24 05:41:08;;;;;;;1.10;0.53;;;21.20;99.90;;;;;;5088911;28;20633;-75
2022/10/24 05:43:35;;;;;;;0.60;0.60;;;21.30;99.90;;;;;;5078632;28;20240;-73
2022/10/24 05:46:05;;;;;;;0.70;0.53;;;21.20;99.90;;;;;;5070255;28;20208;-73
2022/10/24 05:48:32;;;;;;;2.10;0.60;;;21.20;99.90;;;;;;5072348;28;20187;-74
2022/10/24 05:51:00;;;;;;;2.30;0.67;;;21.20;99.90;;;;;;5084752;28;20724;-73
2022/10/24 05:53:28;;;;;;;1.80;1.03;;;21.30;99.90;;;;;;5078803;28;20649;-74
2022/10/24 05:55:56;;;;;;;1.37;0.70;;;21.10;99.90;;;;;;5072443;28;20281;-73
2022/10/24 05:58:23;;;;;;;1.07;0.67;;;21.10;99.90;;;;;;5081668;28;20186;-73
2022/10/24 06:00:52;;;;;;;3.07;0.90;;;21.20;99.90;;;;;;5087871;28;20270;-74
2022/10/24 06:03:20;;;;;;;1.73;1.07;;;21.20;99.90;;;;;;5073712;28;20177;-75
2022/10/24 06:05:48;;;;;;;2.40;0.93;;;21.30;99.90;;;;;;5071572;28;20181;-74
2022/10/24 06:08:15;;;;;;;4.57;1.47;;;21.30;99.90;;;;;;5080473;28;20228;-74
2022/10/24 06:10:47;;;;;;;2.60;1.00;;;21.30;99.90;;;;;;5079301;28;20266;-74
2022/10/24 06:13:16;;;;;;;2.10;1.00;;;21.30;99.90;;;;;;5071622;28;20604;-74
2022/10/24 06:15:44;;;;;;;3.47;1.43;;;21.30;99.90;;;;;;5083665;28;20198;-74
2022/10/24 06:18:12;;;;;;;3.83;1.40;;;21.20;99.90;;;;;;5091523;28;20191;-74
2022/10/24 06:20:40;;;;;;;3.63;1.20;;;21.10;99.90;;;;;;5089879;28;20209;-75
2022/10/24 06:23:08;;;;;;;5.33;1.30;;;21.00;99.90;;;;;;5091784;28;20232;-75
2022/10/24 06:25:36;;;;;;;1.93;1.43;;;21.10;99.90;;;;;;5090781;28;20183;-77
2022/10/24 06:28:03;;;;;;;2.73;1.40;;;21.20;99.90;;;;;;5091840;28;20260;-76
2022/10/24 06:30:31;;;;;;;2.77;1.20;;;21.20;99.90;;;;;;5079309;28;20183;-76
2022/10/24 06:33:00;;;;;;;4.00;1.50;;;21.40;99.90;;;;;;5072341;28;20183;-76
2022/10/24 06:35:28;;;;;;;2.47;1.20;;;21.40;99.90;;;;;;5074185;28;20217;-75
2022/10/24 06:37:55;;;;;;;4.00;1.30;;;21.40;99.90;;;;;;5089810;28;20190;-75
2022/10/24 06:40:23;;;;;;;2.80;1.03;;;21.50;99.90;;;;;;5069197;28;20188;-74
2022/10/24 06:42:51;;;;;;;2.47;1.30;;;21.60;99.90;;;;;;5075206;28;20275;-73
2022/10/24 06:45:20;;;;;;;3.43;1.60;;;21.50;99.90;;;;;;5077268;28;20196;-74
2022/10/24 06:47:48;;;;;;;4.03;1.53;;;21.50;99.90;;;;;;5075292;28;20187;-75
2022/10/24 06:50:16;;;;;;;3.10;1.53;;;21.50;99.90;;;;;;5076199;28;20194;-76
2022/10/24 06:52:44;;;;;;;3.20;1.70;;;21.50;99.90;;;;;;5089464;28;20187;-76
2022/10/24 06:55:12;;;;;;;2.63;1.33;;;21.40;99.90;;;;;;5094987;28;20262;-76
2022/10/24 06:57:40;;;;;;;3.47;1.53;;;21.30;99.90;;;;;;5085825;28;20176;-74
2022/10/24 07:00:08;;;;;;;4.20;1.50;;;21.20;99.90;;;;;;5076103;28;20180;-76
2022/10/24 07:02:36;;;;;;;4.80;1.20;;;21.10;99.90;;;;;;5084289;28;20247;-75
2022/10/24 07:05:04;;;;;;;5.20;1.40;;;21.00;99.90;;;;;;5094852;28;20178;-75
2022/10/24 07:07:32;;;;;;;4.57;1.40;;;21.00;99.90;;;;;;5095033;28;20183;-77
2022/10/24 07:10:00;;;;;;;5.33;1.40;;;20.90;99.90;;;;;;5076015;28;20177;-76
2022/10/24 07:12:28;;;;;;;2.60;1.77;;;20.90;99.90;;;;;;5056992;28;20668;-76
2022/10/24 07:14:56;;;;;;;5.43;1.30;;;20.80;99.90;;;;;;5074981;28;20641;-74
2022/10/24 07:17:23;;;;;;;2.93;1.30;;;20.80;99.90;;;;;;5072399;28;20559;-75
2022/10/24 07:19:56;;;;;;;6.17;1.33;;;20.80;99.90;;;;;;5094960;28;20215;-74
2022/10/24 07:22:24;;;;;;;3.20;1.70;;;20.80;99.90;;;;;;5095306;28;20219;-74
2022/10/24 07:24:55;;;;;;;4.33;1.83;;;20.80;99.90;;;;;;5081893;28;20184;-74
2022/10/24 07:27:24;;;;;;;6.17;1.90;;;20.80;99.90;;;;;;5089923;28;20220;-74
2022/10/24 07:29:53;;;;;;;3.80;1.73;;;20.80;99.90;;;;;;5094798;28;20178;-74
2022/10/24 07:32:21;;;;;;;3.50;1.57;;;20.80;99.90;;;;;;5092330;28;20568;-74
2022/10/24 07:34:49;;;;;;;3.67;1.40;;;20.80;99.90;;;;;;5074358;28;20168;-73
2022/10/24 07:37:17;;;;;;;5.03;1.60;;;20.70;99.90;;;;;;5083589;28;20177;-74
2022/10/24 07:39:45;;;;;;;4.70;1.60;;;20.70;99.90;;;;;;5082143;28;20229;-74
2022/10/24 07:42:15;;;;;;;4.43;1.50;;;20.70;99.90;;;;;;5074178;28;20278;-73
2022/10/24 07:44:43;;;;;;;8.70;2.03;;;20.70;99.90;;;;;;5055966;28;20588;-73
2022/10/24 07:47:11;;;;;;;5.77;1.60;;;20.70;99.90;;;;;;5074163;28;20540;-74
2022/10/24 07:49:39;;;;;;;5.13;1.60;;;20.70;99.90;;;;;;5073072;28;20187;-74
2022/10/24 07:52:07;;;;;;;4.90;1.43;;;20.70;99.90;;;;;;5074091;28;20180;-74
2022/10/24 07:54:35;;;;;;;6.03;1.77;;;20.60;99.90;;;;;;5093355;28;20272;-74
2022/10/24 07:57:02;;;;;;;3.73;1.60;;;20.60;99.90;;;;;;5074899;28;20913;-76
2022/10/24 07:59:30;;;;;;;2.50;1.50;;;20.60;99.90;;;;;;5081688;28;20184;-75
2022/10/24 08:01:58;;;;;;;7.47;1.67;;;20.60;99.90;;;;;;5080716;28;20246;-75
2022/10/24 08:04:27;;;;;;;6.43;1.87;;;20.50;99.90;;;;;;5095206;28;20266;-73
2022/10/24 08:06:56;;;;;;;3.83;1.60;;;20.50;99.90;;;;;;5082811;28;20532;-75
2022/10/24 08:09:23;;;;;;;5.13;2.23;;;20.40;99.90;;;;;;5098127;28;20176;-73
2022/10/24 08:11:51;;;;;;;4.20;1.80;;;20.40;99.90;;;;;;5096154;28;20243;-73
2022/10/24 08:14:19;;;;;;;3.80;2.03;;;20.50;99.90;;;;;;5095120;28;20178;-73
2022/10/24 08:16:47;;;;;;;3.20;1.63;;;20.40;99.90;;;;;;5095073;28;20516;-73
2022/10/24 08:19:15;;;;;;;3.27;1.70;;;20.40;99.90;;;;;;5095463;28;20504;-74
2022/10/24 08:21:42;;;;;;;3.23;1.70;;;20.40;99.90;;;;;;5095224;28;20209;-73
2022/10/24 08:24:10;;;;;;;3.13;1.70;;;20.40;99.90;;;;;;5095222;28;20197;-73
2022/10/24 08:26:40;;;;;;;2.27;1.40;;;20.40;99.90;;;;;;5095063;28;20261;-72
2022/10/24 08:29:13;;;;;;;4.70;1.53;;;20.40;99.90;;;;;;5077104;28;20543;-73
2022/10/24 08:31:42;;;;;;;2.93;1.30;;;20.30;99.90;;;;;;5094920;28;20187;-74
2022/10/24 08:34:12;;;;;;;6.17;1.43;;;20.30;99.90;;;;;;5077382;28;20212;-73
2022/10/24 08:36:39;;;;;;;1.37;1.10;;;20.30;99.90;;;;;;5095059;28;20219;-73
2022/10/24 08:39:08;;;;;;;2.57;1.30;;;20.20;99.90;;;;;;5095026;28;20184;-73
2022/10/24 08:41:42;;;;;;;4.13;1.67;;;20.20;99.90;;;;;;5094813;28;20224;-74
2022/10/24 08:44:28;;;;;;;3.57;1.80;;;20.20;99.90;;;;;;5094861;28;20168;-72
2022/10/24 08:47:18;;;;;;;1.80;1.33;;;20.20;99.90;;;;;;5094731;28;20178;-73
2022/10/24 08:49:53;;;;;;;2.40;1.60;;;20.20;99.90;;;;;;5094301;28;20179;-73
2022/10/24 08:52:32;;;;;;;2.87;1.80;;;20.20;99.90;;;;;;5095073;28;20182;-74
2022/10/24 08:55:10;;;;;;;5.30;1.90;;;20.20;99.90;;;;;;5094570;28;20224;-73
2022/10/24 08:57:39;;;;;;;7.13;1.50;;;20.10;99.90;;;;;;5094561;28;20191;-73
2022/10/24 09:00:30;;;;;;;5.97;1.60;;;20.10;99.90;;;;;;5094497;28;20171;-73
2022/10/24 09:03:22;;;;;;;6.10;1.47;;;20.10;99.90;;;;;;5090880;28;20558;-73
2022/10/24 09:05:56;;;;;;;7.93;1.50;;;20.00;99.90;;;;;;5073834;28;20187;-73
2022/10/24 09:08:45;;;;;;;4.60;1.67;;;20.00;99.90;;;;;;5074167;28;20581;-73
2022/10/24 09:11:35;;;;;;;5.40;1.43;;;20.00;99.90;;;;;;5074156;28;20163;-73
2022/10/24 09:14:42;;;;;;;3.83;1.30;;;19.90;99.90;;;;;;5073997;28;20175;-73
2022/10/24 09:17:33;;;;;;;4.23;1.60;;;19.90;99.90;;;;;;4973383;28;20207;-72
2022/10/24 09:20:18;;;;;;;8.20;1.40;;;19.90;99.90;;;;;;4973251;28;20220;-75
2022/10/24 09:22:47;;;;;;;4.07;1.00;;;19.90;99.90;;;;;;5050085;28;20626;-74
2022/10/24 09:25:21;;;;;;;6.17;1.90;;;19.80;99.90;;;;;;5073618;28;20172;-73
2022/10/24 09:27:50;;;;;;;4.03;1.30;;;19.80;99.90;;;;;;5067244;28;20538;-73
2022/10/24 09:30:25;;;;;;;3.20;1.37;;;19.80;99.90;;;;;;5094056;28;20175;-74
2022/10/24 09:32:55;;;;;;;3.57;1.47;;;19.80;99.90;;;;;;5094022;28;20259;-76
2022/10/24 09:35:25;;;;;;;7.37;1.43;;;19.80;99.90;;;;;;5093937;28;20171;-76
2022/10/24 09:37:58;;;;;;;3.10;1.23;;;19.80;99.90;;;;;;5093854;28;20659;-75
2022/10/24 09:40:31;;;;;;;7.40;1.70;;;19.80;99.90;;;;;;5093621;28;20244;-77
2022/10/24 09:43:20;;;;;;;5.93;1.90;;;19.70;99.90;;;;;;5093858;28;20267;-76
2022/10/24 09:46:12;;;;;;;4.97;1.83;;;19.70;99.90;;;;;;5075245;28;20596;-77
2022/10/24 09:48:50;;;;;;;7.13;1.67;;;19.60;99.90;;;;;;5093629;28;20262;-75
2022/10/24 09:51:33;;;;;;;6.97;1.27;;;19.70;99.90;;;;;;5093671;28;20174;-74
2022/10/24 09:54:27;;;;;;;4.37;1.30;;;19.70;99.90;;;;;;5093618;28;20225;-73
2022/10/24 09:56:59;;;;;;;5.97;1.33;;;19.70;99.90;;;;;;5094114;28;20171;-73
2022/10/24 09:59:49;;;;;;;2.97;1.37;;;19.60;99.90;;;;;;5093656;28;20178;-72
2022/10/24 10:02:23;;;;;;;3.47;1.57;;;19.60;99.90;;;;;;5093134;28;20237;-73
2022/10/24 10:05:03;;;;;;;3.87;1.37;;;19.60;99.90;;;;;;5093138;28;20182;-73
2022/10/24 10:07:33;;;;;;;2.53;1.27;;;19.60;99.90;;;;;;5075138;28;20179;-75
2022/10/24 10:10:26;;;;;;;6.70;2.30;;;19.60;99.90;;;;;;5093268;28;20199;-72
2022/10/24 10:12:59;;;;;;;4.73;1.70;;;19.50;99.90;;;;;;5092755;28;20171;-73
2022/10/24 10:15:26;;;;;;;4.47;1.57;;;19.50;99.90;;;;;;5093534;28;20254;-75
2022/10/24 10:18:01;;;;;;;3.67;1.37;;;19.50;99.90;;;;;;5093597;28;20180;-75
2022/10/24 10:20:39;;;;;;;2.83;1.60;;;19.50;99.90;;;;;;5093405;28;20171;-77
2022/10/24 10:23:35;;;;;;;4.57;1.60;;;19.50;99.90;;;;;;5093376;28;20182;-75
2022/10/24 10:26:20;;;;;;;6.97;1.70;;;19.50;99.90;;;;;;5092905;28;20585;-76
2022/10/24 10:28:51;;;;;;;8.27;1.90;;;19.50;99.90;;;;;;5093982;28;20171;-74
2022/10/24 10:31:23;;;;;;;4.20;1.33;;;19.50;99.90;;;;;;5093291;28;20181;-75
2022/10/24 10:34:11;;;;;;;5.77;1.60;;;19.50;99.90;;;;;;5093573;28;20728;-76
2022/10/24 10:36:59;;;;;;;6.47;1.50;;;19.40;99.90;;;;;;5093039;28;20182;-75
2022/10/24 10:39:27;;;;;;;5.50;1.17;;;19.30;99.90;;;;;;5093133;28;20279;-76
2022/10/24 10:42:14;;;;;;;3.80;1.47;;;19.30;99.90;;;;;;5092935;28;20210;-73
2022/10/24 10:45:08;;;;;;;5.10;1.30;;;19.30;99.90;;;;;;5093112;28;20172;-75
2022/10/24 10:47:51;;;;;;;7.57;1.93;;;19.30;99.90;;;;;;5093116;28;20590;-73
2022/10/24 10:50:40;;;;;;;3.87;1.87;;;19.30;99.90;;;;;;5092763;28;20179;-74
2022/10/24 10:53:35;;;;;;;3.93;1.63;;;19.20;99.90;;;;;;5074827;28;20628;-73
2022/10/24 10:56:16;;;;;;;7.03;1.70;;;19.20;99.90;;;;;;5092926;28;20174;-76
2022/10/24 10:58:55;;;;;;;6.17;2.10;;;19.20;99.90;;;;;;5093098;28;20172;-74
2022/10/24 11:01:23;;;;;;;8.57;1.80;;;19.20;99.90;;;;;;5092964;28;20234;-76
2022/10/24 11:04:32;;;;;;;4.70;1.47;;;19.20;99.90;;;;;;5092989;28;20168;-73
2022/10/24 11:07:06;;;;;;;5.03;2.03;;;19.20;99.90;;;;;;5027477;28;20680;-73
2022/10/24 11:09:53;;;;;;;5.80;1.83;;;19.10;99.90;;;;;;5092945;28;20707;-73
2022/10/24 11:12:25;;;;;;;7.67;1.77;;;19.10;99.90;;;;;;5075265;28;20858;-76
2022/10/24 11:15:17;;;;;;;7.57;1.97;;;19.10;99.90;;;;;;5092938;28;20183;-74
2022/10/24 11:18:20;;;;;;;6.87;2.20;;;19.10;99.90;;;;;;5092784;28;20176;-77
2022/10/24 11:20:57;;;;;;;4.53;1.77;;;19.10;99.90;;;;;;5093037;28;20198;-77
2022/10/24 11:23:47;;;;;;;6.63;1.80;;;19.10;99.90;;;;;;5093439;28;20182;-77
2022/10/24 11:26:21;;;;;;;4.20;1.90;;;19.00;99.90;;;;;;5076969;28;20671;-74
2022/10/24 11:29:17;;;;;;;8.10;2.30;;;18.90;99.90;;;;;;5096976;28;20167;-73
2022/10/24 11:32:17;;;;;;;5.20;1.67;;;18.90;99.90;;;;;;5096345;28;20181;-74
2022/10/24 11:34:59;;;;;;;5.57;1.70;;;18.80;99.90;;;;;;5095814;28;20221;-74
2022/10/24 11:37:43;;;;;;;10.40;1.60;;;18.70;99.90;;;;;;5096356;28;20176;-73
2022/10/24 11:40:17;;;;;;;4.07;1.43;;;18.60;99.90;;;;;;5096267;28;20179;-73
2022/10/24 11:43:02;;;;;;;5.30;2.00;;;18.50;99.90;;;;;;5077753;28;20360;-73
2022/10/24 11:45:53;;;;;;;4.53;1.40;;;18.50;99.90;;;;;;5096040;28;20257;-73
2022/10/24 11:48:47;;;;;;;5.37;1.87;;;18.40;99.90;;;;;;5078641;28;20252;-73
2022/10/24 11:51:40;;;;;;;8.10;1.63;;;18.40;99.90;;;;;;5077767;28;20236;-74
2022/10/24 11:54:25;;;;;;;7.57;2.20;;;18.40;99.90;;;;;;5096357;28;20163;-74
2022/10/24 11:57:02;;;;;;;11.73;2.07;;;18.30;99.90;;;;;;5095790;28;20179;-73
2022/10/24 11:59:30;;;;;;;8.20;2.07;;;18.30;99.90;;;;;;5095816;28;20201;-73
2022/10/24 12:02:25;;;;;;;5.40;1.63;;;18.30;99.90;;;;;;5095487;28;20226;-74
2022/10/24 12:04:53;;;;;;;5.67;1.70;;;18.30;99.90;;;;;;5095509;28;20252;-73
2022/10/24 12:07:53;;;;;;;5.20;1.93;;;18.20;99.90;;;;;;5095584;28;20240;-73
2022/10/24 12:10:36;;;;;;;6.83;2.00;;;18.20;99.90;;;;;;5095563;28;20163;-73
2022/10/24 12:13:26;;;;;;;4.90;1.77;;;18.10;99.90;;;;;;5095649;28;20174;-73
2022/10/24 12:16:21;;;;;;;6.37;2.13;;;18.10;99.90;;;;;;5095572;28;20179;-73
2022/10/24 12:19:02;;;;;;;8.27;2.40;;;18.20;99.90;;;;;;5095474;28;20182;-73
2022/10/24 12:21:41;;;;;;;6.37;2.17;;;18.20;99.90;;;;;;5095435;28;20296;-74
2022/10/24 12:24:29;;;;;;;5.03;2.20;;;18.20;99.90;;;;;;5095180;28;20513;-73
2022/10/24 12:27:03;;;;;;;10.73;2.63;;;18.20;99.90;;;;;;5095361;28;20203;-73
2022/10/24 12:29:36;;;;;;;9.73;2.50;;;18.30;99.90;;;;;;5094917;28;20244;-72
2022/10/24 12:32:38;;;;;;;9.93;3.07;;;18.30;99.90;;;;;;5095138;28;20205;-73
2022/10/24 12:35:37;;;;;;;8.63;2.63;;;18.30;99.90;;;;;;5063762;28;20659;-73
2022/10/24 12:38:17;;;;;;;7.27;2.47;;;18.30;99.90;;;;;;5095278;28;20179;-73
2022/10/24 12:41:09;;;;;;;5.23;2.37;;;18.30;99.90;;;;;;5076864;28;20268;-73
2022/10/24 12:43:43;;;;;;;4.17;2.43;;;18.30;99.90;;;;;;5095060;28;20183;-73
2022/10/24 12:46:19;;;;;;;5.50;2.60;;;18.30;99.90;;;;;;5095036;28;20218;-73
2022/10/24 12:48:59;;;;;;;7.23;2.40;;;18.20;99.90;;;;;;5095586;28;20175;-73
2022/10/24 12:51:33;;;;;;;8.60;3.00;;;18.10;99.90;;;;;;5076613;28;20219;-72
2022/10/24 12:54:12;;;;;;;6.57;3.27;;;18.10;99.90;;;;;;5094762;28;20262;-73
2022/10/24 12:56:52;;;;;;;10.57;2.57;;;18.00;99.90;;;;;;5095474;28;20190;-74
2022/10/24 12:59:24;;;;;;;5.90;3.00;;;18.00;99.90;;;;;;5094860;28;20177;-72
2022/10/24 13:02:11;;;;;;;5.33;2.53;;;17.90;99.90;;;;;;5094362;28;20234;-72
2022/10/24 13:05:08;;;;;;;11.23;2.90;;;17.80;99.90;;;;;;5094588;28;20262;-73
2022/10/24 13:08:00;;;;;;;8.30;2.77;;;17.80;99.90;;;;;;5094323;28;20262;-72
2022/10/24 13:11:08;;;;;;;8.20;3.07;;;17.80;99.90;;;;;;5094669;28;20199;-73
2022/10/24 13:14:03;;;;;;;8.20;2.70;;;17.80;99.90;;;;;;4992770;28;20186;-73
2022/10/24 13:16:59;;;;;;;8.43;2.53;;;17.80;99.90;;;;;;5093190;28;20183;-73
2022/10/24 13:19:28;;;;;;;8.63;2.60;;;17.70;99.90;;;;;;5094306;28;20679;-72
2022/10/24 13:21:58;;;;;;;9.53;3.00;;;17.70;99.90;;;;;;5094155;28;20215;-73
2022/10/24 13:24:34;;;;;;;4.70;2.23;;;17.60;99.90;;;;;;5093817;28;20198;-74